Abisko, Sweden

10:53 PM CEST on September 17, 2014 (GMT +0200)
Bardu | Change Station
CLOSE
Current Station
Personal Weather Station
Location: Bardu, TROMS
Elevation: 1663 ft
Nearby Weather Stations

Elev 1663 ft 68.66 °N, 18.88 °E | Updated 9 minutes ago

Mostly Cloudy
Mostly Cloudy
42.5 °F
Feels Like 42 °F
N
3.0
Wind Variable Wind from SW
Gusts 8.0 mph

Today
High -- | Low -- °F
--% Chance of Precip.
Yesterday
High -- | Low -- °F
Precip. -- in
6:07 AM 7:09 PM
Waning Crescent, 33% visible
Pressure 30.27 in
Visibility 6.2 miles
Clouds Few 900 ft
Scattered Clouds 1800 ft
Mostly Cloudy 2500 ft
Windchill 42 °F
Dew Point 41 °F
Humidity 95%
Rainfall 0.00 in
Snow Depth Not available.
UV 0 out of 12
Pollen Not available.
Air Quality Not available.
Flu Activity Not available.
METAR ENDU 171950Z VRB02KT 9999 VCSH FEW009 SCT018 BKN025 07/05 Q1025

More Conditions Fewer Conditions

Pressure 30.27 in
Visibility 6.2 miles
Clouds Few 900 ft
Scattered Clouds 1800 ft
Mostly Cloudy 2500 ft
Windchill 42 °F
Dew Point 41 °F
Humidity 95%
Rainfall 0.00 in
Snow Depth Not available.
UV 0 out of 12
Pollen Not available.
Air Quality Not available.
Flu Activity Not available.
METAR ENDU 171950Z VRB02KT 9999 VCSH FEW009 SCT018 BKN025 07/05 Q1025

More Conditions Fewer Conditions

10-Day Weather Forecast

Almanac

Astronomy

Sep. 17, 2014 Rise Set
Actual Time 6:07 AM CEST 7:09 PM CEST
Civil Twilight 5:08 AM CEST 8:07 PM CEST
Nautical Twilight 3:52 AM CEST 9:22 PM CEST
Astronomical Twilight 1:57 AM CEST 11:11 PM CEST
Moon 10:32 PM CEST 5:22 PM CEST
Length of Visible Light 14h 58m
Length of Day
13h 02m
Tomorrow will be 7m 51s shorter.
Waning Crescent, 33% of the Moon is Illuminated
Today
Waning Crescent
Sep 24
New
Oct 1
First Quarter
Oct 8
Full
Oct 15
Last Quarter

Today's Extremes

Country Highs Country Lows

Community

WunderPhotos

Upload Photos

1,754,161 photos uploaded!

WunderBlogs® & News

Nearby

Snow Depth

Not available.

Earthquake Activity

City Distance Mag. Time & Date
No recent earthquake activity has been reported nearby.
Minimum magnitude displayed is 2.5.

Coastal Water Temperatures

Place Temperature
No Stations Reporting

Nearby Weather Stations